sensor_id;sensor_type;location;lat;lon;timestamp;temperature;humidity
43995;DHT22;51687;52.160;5.298;2023-08-07T03:29:32;17.80;72.60
43995;DHT22;51687;52.160;5.298;2023-08-07T03:31:59;17.70;73.30
43995;DHT22;51687;52.160;5.298;2023-08-07T03:34:25;17.70;74.00
43995;DHT22;51687;52.160;5.298;2023-08-07T03:36:52;17.70;73.50
43995;DHT22;51687;52.160;5.298;2023-08-07T03:39:19;17.80;73.40
43995;DHT22;51687;52.160;5.298;2023-08-07T03:41:46;17.70;73.40
43995;DHT22;51687;52.160;5.298;2023-08-07T03:44:13;17.70;73.40
43995;DHT22;51687;52.160;5.298;2023-08-07T03:46:39;17.70;73.40
43995;DHT22;51687;52.160;5.298;2023-08-07T03:49:06;17.70;73.40
43995;DHT22;51687;52.160;5.298;2023-08-07T03:51:33;17.70;73.60
43995;DHT22;51687;52.160;5.298;2023-08-07T03:53:59;17.70;73.60
43995;DHT22;51687;52.160;5.298;2023-08-07T03:56:26;17.70;73.70
43995;DHT22;51687;52.160;5.298;2023-08-07T03:58:53;17.70;73.80
43995;DHT22;51687;52.160;5.298;2023-08-07T04:01:20;17.70;73.70
43995;DHT22;51687;52.160;5.298;2023-08-07T04:03:47;17.70;73.70
43995;DHT22;51687;52.160;5.298;2023-08-07T04:06:15;17.70;73.80
43995;DHT22;51687;52.160;5.298;2023-08-07T04:08:45;17.70;73.80
43995;DHT22;51687;52.160;5.298;2023-08-07T04:11:12;17.70;73.80
43995;DHT22;51687;52.160;5.298;2023-08-07T04:13:39;17.70;73.80
43995;DHT22;51687;52.160;5.298;2023-08-07T04:16:06;17.60;73.90
43995;DHT22;51687;52.160;5.298;2023-08-07T04:18:33;17.70;74.10
43995;DHT22;51687;52.160;5.298;2023-08-07T04:21:00;17.70;74.20
43995;DHT22;51687;52.160;5.298;2023-08-07T04:23:27;17.70;74.20
43995;DHT22;51687;52.160;5.298;2023-08-07T04:25:54;17.60;74.20
43995;DHT22;51687;52.160;5.298;2023-08-07T04:28:21;17.60;74.10
43995;DHT22;51687;52.160;5.298;2023-08-07T04:30:51;17.60;74.00
43995;DHT22;51687;52.160;5.298;2023-08-07T04:33:19;17.60;74.20
43995;DHT22;51687;52.160;5.298;2023-08-07T04:35:47;17.70;74.20
43995;DHT22;51687;52.160;5.298;2023-08-07T04:38:14;17.60;74.10
43995;DHT22;51687;52.160;5.298;2023-08-07T04:40:48;17.60;74.30
43995;DHT22;51687;52.160;5.298;2023-08-07T04:43:17;17.60;74.50
43995;DHT22;51687;52.160;5.298;2023-08-07T04:45:44;17.60;74.50
43995;DHT22;51687;52.160;5.298;2023-08-07T04:48:14;17.70;74.60
43995;DHT22;51687;52.160;5.298;2023-08-07T04:50:41;17.60;74.60
43995;DHT22;51687;52.160;5.298;2023-08-07T04:53:08;17.60;74.60
43995;DHT22;51687;52.160;5.298;2023-08-07T04:55:35;17.60;74.70
43995;DHT22;51687;52.160;5.298;2023-08-07T04:58:02;17.60;74.70
43995;DHT22;51687;52.160;5.298;2023-08-07T05:00:32;17.60;74.70
43995;DHT22;51687;52.160;5.298;2023-08-07T05:02:59;17.60;74.90
43995;DHT22;51687;52.160;5.298;2023-08-07T05:05:25;17.60;75.00
43995;DHT22;51687;52.160;5.298;2023-08-07T05:07:54;17.60;74.90
43995;DHT22;51687;52.160;5.298;2023-08-07T05:10:21;17.60;75.00
43995;DHT22;51687;52.160;5.298;2023-08-07T05:12:48;17.70;75.10
43995;DHT22;51687;52.160;5.298;2023-08-07T05:15:15;17.70;75.00
43995;DHT22;51687;52.160;5.298;2023-08-07T05:17:42;17.70;74.90
43995;DHT22;51687;52.160;5.298;2023-08-07T05:20:09;17.70;74.90
43995;DHT22;51687;52.160;5.298;2023-08-07T05:22:36;17.70;74.80
43995;DHT22;51687;52.160;5.298;2023-08-07T05:25:04;17.70;74.80
43995;DHT22;51687;52.160;5.298;2023-08-07T05:27:31;17.70;74.80
43995;DHT22;51687;52.160;5.298;2023-08-07T05:29:59;17.70;74.60
43995;DHT22;51687;52.160;5.298;2023-08-07T05:32:25;17.80;74.70
43995;DHT22;51687;52.160;5.298;2023-08-07T05:34:52;17.70;74.50
43995;DHT22;51687;52.160;5.298;2023-08-07T05:37:19;17.70;74.60
43995;DHT22;51687;52.160;5.298;2023-08-07T05:39:46;17.70;74.60
43995;DHT22;51687;52.160;5.298;2023-08-07T05:42:12;17.70;74.60
43995;DHT22;51687;52.160;5.298;2023-08-07T05:44:39;17.60;74.60
43995;DHT22;51687;52.160;5.298;2023-08-07T05:47:06;17.70;74.80
43995;DHT22;51687;52.160;5.298;2023-08-07T05:49:33;17.70;74.80
43995;DHT22;51687;52.160;5.298;2023-08-07T05:52:00;17.60;74.70
43995;DHT22;51687;52.160;5.298;2023-08-07T05:54:27;17.70;74.80
43995;DHT22;51687;52.160;5.298;2023-08-07T05:56:53;17.60;74.50
43995;DHT22;51687;52.160;5.298;2023-08-07T05:59:20;17.60;74.60
43995;DHT22;51687;52.160;5.298;2023-08-07T06:01:47;17.60;74.60
43995;DHT22;51687;52.160;5.298;2023-08-07T06:04:14;17.60;74.60
43995;DHT22;51687;52.160;5.298;2023-08-07T06:06:40;17.60;74.50
43995;DHT22;51687;52.160;5.298;2023-08-07T06:09:09;17.70;74.80
43995;DHT22;51687;52.160;5.298;2023-08-07T06:11:36;17.70;75.00
43995;DHT22;51687;52.160;5.298;2023-08-07T06:14:02;17.60;75.00
43995;DHT22;51687;52.160;5.298;2023-08-07T06:16:29;17.70;75.30
43995;DHT22;51687;52.160;5.298;2023-08-07T06:18:56;17.70;75.40
43995;DHT22;51687;52.160;5.298;2023-08-07T06:21:23;17.70;75.50
43995;DHT22;51687;52.160;5.298;2023-08-07T06:23:50;17.70;75.60
43995;DHT22;51687;52.160;5.298;2023-08-07T06:26:17;17.70;75.70
43995;DHT22;51687;52.160;5.298;2023-08-07T06:28:44;17.70;75.80
43995;DHT22;51687;52.160;5.298;2023-08-07T06:31:12;17.70;75.80
43995;DHT22;51687;52.160;5.298;2023-08-07T06:33:39;17.70;76.10
43995;DHT22;51687;52.160;5.298;2023-08-07T06:36:07;17.70;76.10
43995;DHT22;51687;52.160;5.298;2023-08-07T06:38:35;17.70;76.30
43995;DHT22;51687;52.160;5.298;2023-08-07T06:41:02;17.80;76.30
43995;DHT22;51687;52.160;5.298;2023-08-07T06:43:29;17.80;76.10
43995;DHT22;51687;52.160;5.298;2023-08-07T06:45:56;17.80;76.00
43995;DHT22;51687;52.160;5.298;2023-08-07T06:48:23;17.80;76.10
43995;DHT22;51687;52.160;5.298;2023-08-07T06:50:51;17.80;76.20
43995;DHT22;51687;52.160;5.298;2023-08-07T06:53:18;17.80;76.40
43995;DHT22;51687;52.160;5.298;2023-08-07T06:55:45;17.90;76.20
43995;DHT22;51687;52.160;5.298;2023-08-07T06:58:12;17.80;75.70
43995;DHT22;51687;52.160;5.298;2023-08-07T07:00:39;17.80;75.50
43995;DHT22;51687;52.160;5.298;2023-08-07T07:03:05;17.90;75.00
43995;DHT22;51687;52.160;5.298;2023-08-07T07:05:34;17.80;73.90
43995;DHT22;51687;52.160;5.298;2023-08-07T07:08:01;17.90;73.90
43995;DHT22;51687;52.160;5.298;2023-08-07T07:10:27;17.90;73.90
43995;DHT22;51687;52.160;5.298;2023-08-07T07:12:56;17.90;73.70
43995;DHT22;51687;52.160;5.298;2023-08-07T07:15:23;17.90;73.60
43995;DHT22;51687;52.160;5.298;2023-08-07T07:17:49;17.90;73.60
43995;DHT22;51687;52.160;5.298;2023-08-07T07:20:16;17.90;74.00
43995;DHT22;51687;52.160;5.298;2023-08-07T07:22:43;17.90;74.50
43995;DHT22;51687;52.160;5.298;2023-08-07T07:25:10;17.90;74.50
43995;DHT22;51687;52.160;5.298;2023-08-07T07:27:37;18.00;75.20
43995;DHT22;51687;52.160;5.298;2023-08-07T07:30:04;18.00;75.90
43995;DHT22;51687;52.160;5.298;2023-08-07T07:32:31;18.00;75.80
43995;DHT22;51687;52.160;5.298;2023-08-07T07:34:58;18.00;75.80
43995;DHT22;51687;52.160;5.298;2023-08-07T07:37:25;18.00;75.70
43995;DHT22;51687;52.160;5.298;2023-08-07T07:39:52;18.00;75.80
43995;DHT22;51687;52.160;5.298;2023-08-07T07:42:18;18.00;75.70
43995;DHT22;51687;52.160;5.298;2023-08-07T07:44:45;18.00;75.20
43995;DHT22;51687;52.160;5.298;2023-08-07T07:47:12;17.90;75.10
43995;DHT22;51687;52.160;5.298;2023-08-07T07:49:45;17.90;74.80
43995;DHT22;51687;52.160;5.298;2023-08-07T07:52:12;17.90;74.40
43995;DHT22;51687;52.160;5.298;2023-08-07T07:54:39;17.90;74.10
43995;DHT22;51687;52.160;5.298;2023-08-07T07:57:06;17.90;74.00
43995;DHT22;51687;52.160;5.298;2023-08-07T07:59:33;17.90;74.20
43995;DHT22;51687;52.160;5.298;2023-08-07T08:02:00;17.90;74.00
43995;DHT22;51687;52.160;5.298;2023-08-07T08:04:26;17.90;73.80
43995;DHT22;51687;52.160;5.298;2023-08-07T08:06:54;18.00;74.10
43995;DHT22;51687;52.160;5.298;2023-08-07T08:09:21;18.00;74.30
43995;DHT22;51687;52.160;5.298;2023-08-07T08:11:48;18.00;74.00
43995;DHT22;51687;52.160;5.298;2023-08-07T08:14:15;18.00;73.80
43995;DHT22;51687;52.160;5.298;2023-08-07T08:16:42;18.00;74.00
43995;DHT22;51687;52.160;5.298;2023-08-07T08:19:09;18.00;73.70
43995;DHT22;51687;52.160;5.298;2023-08-07T08:21:36;18.00;73.70
43995;DHT22;51687;52.160;5.298;2023-08-07T08:24:03;18.00;74.00
43995;DHT22;51687;52.160;5.298;2023-08-07T08:26:30;18.00;74.20
43995;DHT22;51687;52.160;5.298;2023-08-07T08:28:57;18.00;74.00
43995;DHT22;51687;52.160;5.298;2023-08-07T08:31:24;18.10;73.90
43995;DHT22;51687;52.160;5.298;2023-08-07T08:33:51;18.10;74.00
43995;DHT22;51687;52.160;5.298;2023-08-07T08:36:18;18.10;73.60
43995;DHT22;51687;52.160;5.298;2023-08-07T08:38:44;18.10;72.70
43995;DHT22;51687;52.160;5.298;2023-08-07T08:41:13;18.20;73.60
43995;DHT22;51687;52.160;5.298;2023-08-07T08:43:40;18.20;72.90
43995;DHT22;51687;52.160;5.298;2023-08-07T08:46:09;18.20;72.60
43995;DHT22;51687;52.160;5.298;2023-08-07T08:48:39;18.20;72.10
43995;DHT22;51687;52.160;5.298;2023-08-07T08:51:08;18.20;72.40
43995;DHT22;51687;52.160;5.298;2023-08-07T08:53:35;18.30;72.50
43995;DHT22;51687;52.160;5.298;2023-08-07T08:56:02;18.30;71.70
43995;DHT22;51687;52.160;5.298;2023-08-07T08:58:29;18.30;71.80
43995;DHT22;51687;52.160;5.298;2023-08-07T09:00:56;18.30;71.60
43995;DHT22;51687;52.160;5.298;2023-08-07T09:03:24;18.30;71.60
43995;DHT22;51687;52.160;5.298;2023-08-07T09:05:53;18.30;71.70
43995;DHT22;51687;52.160;5.298;2023-08-07T09:08:23;18.30;72.10
43995;DHT22;51687;52.160;5.298;2023-08-07T09:10:52;18.30;71.90
43995;DHT22;51687;52.160;5.298;2023-08-07T09:13:23;18.30;71.80
43995;DHT22;51687;52.160;5.298;2023-08-07T09:15:53;18.30;72.20
43995;DHT22;51687;52.160;5.298;2023-08-07T09:18:20;18.30;72.00
43995;DHT22;51687;52.160;5.298;2023-08-07T09:20:47;18.40;72.60
43995;DHT22;51687;52.160;5.298;2023-08-07T09:23:16;18.40;73.80
43995;DHT22;51687;52.160;5.298;2023-08-07T09:25:44;18.40;72.60
43995;DHT22;51687;52.160;5.298;2023-08-07T09:28:11;18.40;72.70
43995;DHT22;51687;52.160;5.298;2023-08-07T09:30:41;18.40;72.00
43995;DHT22;51687;52.160;5.298;2023-08-07T09:33:10;18.40;71.50
43995;DHT22;51687;52.160;5.298;2023-08-07T09:35:37;18.40;71.00
43995;DHT22;51687;52.160;5.298;2023-08-07T09:38:07;18.40;71.00
43995;DHT22;51687;52.160;5.298;2023-08-07T09:40:34;18.40;70.80
43995;DHT22;51687;52.160;5.298;2023-08-07T09:43:01;18.40;70.00
43995;DHT22;51687;52.160;5.298;2023-08-07T09:45:31;18.40;70.10
43995;DHT22;51687;52.160;5.298;2023-08-07T09:48:04;18.40;70.10
43995;DHT22;51687;52.160;5.298;2023-08-07T09:50:31;18.40;69.30
43995;DHT22;51687;52.160;5.298;2023-08-07T09:52:58;18.40;69.00
43995;DHT22;51687;52.160;5.298;2023-08-07T09:55:26;18.40;69.80
43995;DHT22;51687;52.160;5.298;2023-08-07T09:57:53;18.40;70.60
43995;DHT22;51687;52.160;5.298;2023-08-07T10:00:20;18.50;70.50
43995;DHT22;51687;52.160;5.298;2023-08-07T10:02:49;18.50;70.30
43995;DHT22;51687;52.160;5.298;2023-08-07T10:05:17;18.50;70.40
43995;DHT22;51687;52.160;5.298;2023-08-07T10:07:44;18.50;70.30
43995;DHT22;51687;52.160;5.298;2023-08-07T10:10:11;18.50;70.20
43995;DHT22;51687;52.160;5.298;2023-08-07T10:12:38;18.50;69.70
43995;DHT22;51687;52.160;5.298;2023-08-07T10:15:06;18.50;69.90
43995;DHT22;51687;52.160;5.298;2023-08-07T10:17:33;18.50;69.70
43995;DHT22;51687;52.160;5.298;2023-08-07T10:20:00;18.50;69.20
43995;DHT22;51687;52.160;5.298;2023-08-07T10:22:30;18.50;69.00
43995;DHT22;51687;52.160;5.298;2023-08-07T10:25:02;18.50;71.10
43995;DHT22;51687;52.160;5.298;2023-08-07T10:27:33;18.50;70.40
43995;DHT22;51687;52.160;5.298;2023-08-07T10:30:02;18.60;70.50
43995;DHT22;51687;52.160;5.298;2023-08-07T10:32:31;18.60;70.40
43995;DHT22;51687;52.160;5.298;2023-08-07T10:34:59;18.60;70.70
43995;DHT22;51687;52.160;5.298;2023-08-07T10:37:42;18.60;69.50
43995;DHT22;51687;52.160;5.298;2023-08-07T10:40:11;18.60;68.60
43995;DHT22;51687;52.160;5.298;2023-08-07T10:45:18;18.60;69.20
43995;DHT22;51687;52.160;5.298;2023-08-07T10:48:13;18.70;70.20
43995;DHT22;51687;52.160;5.298;2023-08-07T10:53:38;18.70;69.10
43995;DHT22;51687;52.160;5.298;2023-08-07T10:56:10;18.70;68.80
43995;DHT22;51687;52.160;5.298;2023-08-07T10:58:38;18.70;68.90
43995;DHT22;51687;52.160;5.298;2023-08-07T11:01:19;18.70;68.90
43995;DHT22;51687;52.160;5.298;2023-08-07T11:03:52;18.70;68.40
43995;DHT22;51687;52.160;5.298;2023-08-07T11:06:23;18.70;68.20
43995;DHT22;51687;52.160;5.298;2023-08-07T11:08:50;18.80;68.40
43995;DHT22;51687;52.160;5.298;2023-08-07T11:11:18;18.80;67.30
43995;DHT22;51687;52.160;5.298;2023-08-07T11:13:45;18.70;66.70
43995;DHT22;51687;52.160;5.298;2023-08-07T11:16:12;18.70;66.40
43995;DHT22;51687;52.160;5.298;2023-08-07T11:18:39;18.80;66.40
43995;DHT22;51687;52.160;5.298;2023-08-07T11:21:11;18.80;67.40
43995;DHT22;51687;52.160;5.298;2023-08-07T11:23:39;18.80;67.30
43995;DHT22;51687;52.160;5.298;2023-08-07T11:26:06;18.80;67.30
43995;DHT22;51687;52.160;5.298;2023-08-07T11:28:33;18.80;67.30
43995;DHT22;51687;52.160;5.298;2023-08-07T11:31:01;18.80;68.40
43995;DHT22;51687;52.160;5.298;2023-08-07T11:33:28;18.80;68.50
43995;DHT22;51687;52.160;5.298;2023-08-07T11:35:55;18.80;67.80
43995;DHT22;51687;52.160;5.298;2023-08-07T11:38:38;18.80;67.10
43995;DHT22;51687;52.160;5.298;2023-08-07T11:41:06;18.90;68.50
43995;DHT22;51687;52.160;5.298;2023-08-07T11:43:34;18.90;67.50
43995;DHT22;51687;52.160;5.298;2023-08-07T11:46:05;18.90;67.20
43995;DHT22;51687;52.160;5.298;2023-08-07T11:48:34;18.90;66.40
43995;DHT22;51687;52.160;5.298;2023-08-07T11:51:02;18.90;65.90
43995;DHT22;51687;52.160;5.298;2023-08-07T11:53:31;19.00;67.00
43995;DHT22;51687;52.160;5.298;2023-08-07T11:56:00;19.00;66.30
43995;DHT22;51687;52.160;5.298;2023-08-07T11:58:36;19.00;66.90
43995;DHT22;51687;52.160;5.298;2023-08-07T12:01:14;19.00;64.00
43995;DHT22;51687;52.160;5.298;2023-08-07T12:03:57;19.00;64.40
43995;DHT22;51687;52.160;5.298;2023-08-07T12:06:35;19.00;63.20
43995;DHT22;51687;52.160;5.298;2023-08-07T12:09:02;19.00;64.10
43995;DHT22;51687;52.160;5.298;2023-08-07T12:11:30;19.10;65.10
43995;DHT22;51687;52.160;5.298;2023-08-07T12:13:59;19.10;65.50
43995;DHT22;51687;52.160;5.298;2023-08-07T12:16:31;19.10;64.70
43995;DHT22;51687;52.160;5.298;2023-08-07T12:18:58;19.10;63.70
43995;DHT22;51687;52.160;5.298;2023-08-07T12:21:26;19.20;61.60
43995;DHT22;51687;52.160;5.298;2023-08-07T12:23:55;19.20;58.90
43995;DHT22;51687;52.160;5.298;2023-08-07T12:26:23;19.20;59.00
43995;DHT22;51687;52.160;5.298;2023-08-07T12:28:50;19.20;61.70
43995;DHT22;51687;52.160;5.298;2023-08-07T12:31:18;19.20;61.10
43995;DHT22;51687;52.160;5.298;2023-08-07T12:33:45;19.20;61.90
43995;DHT22;51687;52.160;5.298;2023-08-07T12:36:12;19.30;59.40
43995;DHT22;51687;52.160;5.298;2023-08-07T12:38:43;19.30;58.40
43995;DHT22;51687;52.160;5.298;2023-08-07T12:41:10;19.30;58.40
43995;DHT22;51687;52.160;5.298;2023-08-07T12:43:57;19.30;59.80
43995;DHT22;51687;52.160;5.298;2023-08-07T12:46:25;19.30;60.50
43995;DHT22;51687;52.160;5.298;2023-08-07T12:48:56;19.40;61.00
43995;DHT22;51687;52.160;5.298;2023-08-07T12:51:23;19.40;59.40
43995;DHT22;51687;52.160;5.298;2023-08-07T12:53:50;19.40;61.80
43995;DHT22;51687;52.160;5.298;2023-08-07T12:56:18;19.50;59.10
43995;DHT22;51687;52.160;5.298;2023-08-07T12:58:44;19.50;58.10
43995;DHT22;51687;52.160;5.298;2023-08-07T13:01:12;19.50;56.60
43995;DHT22;51687;52.160;5.298;2023-08-07T13:03:39;19.50;58.30
43995;DHT22;51687;52.160;5.298;2023-08-07T13:06:06;19.60;57.90
43995;DHT22;51687;52.160;5.298;2023-08-07T13:08:35;19.60;58.30
43995;DHT22;51687;52.160;5.298;2023-08-07T13:11:02;19.60;56.90
43995;DHT22;51687;52.160;5.298;2023-08-07T13:13:29;19.70;56.90
43995;DHT22;51687;52.160;5.298;2023-08-07T13:15:57;19.70;56.70
43995;DHT22;51687;52.160;5.298;2023-08-07T13:18:24;19.70;56.90
43995;DHT22;51687;52.160;5.298;2023-08-07T13:20:51;19.70;56.50
43995;DHT22;51687;52.160;5.298;2023-08-07T13:23:17;19.80;57.60
43995;DHT22;51687;52.160;5.298;2023-08-07T13:25:44;19.80;56.50
43995;DHT22;51687;52.160;5.298;2023-08-07T13:28:11;19.80;56.20
43995;DHT22;51687;52.160;5.298;2023-08-07T13:30:38;19.90;56.20
43995;DHT22;51687;52.160;5.298;2023-08-07T13:33:07;19.90;55.20
43995;DHT22;51687;52.160;5.298;2023-08-07T13:35:34;19.90;55.20
43995;DHT22;51687;52.160;5.298;2023-08-07T13:38:00;19.90;56.00
43995;DHT22;51687;52.160;5.298;2023-08-07T13:40:32;19.90;55.30
43995;DHT22;51687;52.160;5.298;2023-08-07T13:42:58;20.00;53.30
43995;DHT22;51687;52.160;5.298;2023-08-07T13:45:28;19.90;53.40
43995;DHT22;51687;52.160;5.298;2023-08-07T13:47:55;20.00;55.00
43995;DHT22;51687;52.160;5.298;2023-08-07T13:50:21;20.00;54.20
43995;DHT22;51687;52.160;5.298;2023-08-07T13:52:48;20.00;54.10
43995;DHT22;51687;52.160;5.298;2023-08-07T13:55:29;20.00;53.40
43995;DHT22;51687;52.160;5.298;2023-08-07T13:57:56;20.10;51.40
43995;DHT22;51687;52.160;5.298;2023-08-07T14:00:23;20.00;52.00
43995;DHT22;51687;52.160;5.298;2023-08-07T14:02:49;20.10;52.90
43995;DHT22;51687;52.160;5.298;2023-08-07T14:05:16;20.10;53.10
43995;DHT22;51687;52.160;5.298;2023-08-07T14:07:43;20.10;52.40
43995;DHT22;51687;52.160;5.298;2023-08-07T14:10:10;20.10;53.80
43995;DHT22;51687;52.160;5.298;2023-08-07T14:12:36;20.10;53.60
43995;DHT22;51687;52.160;5.298;2023-08-07T14:15:05;20.10;53.20
43995;DHT22;51687;52.160;5.298;2023-08-07T14:17:32;20.10;52.10
43995;DHT22;51687;52.160;5.298;2023-08-07T14:19:58;20.10;51.00
43995;DHT22;51687;52.160;5.298;2023-08-07T14:22:25;20.10;50.90
43995;DHT22;51687;52.160;5.298;2023-08-07T14:24:52;20.10;51.50
43995;DHT22;51687;52.160;5.298;2023-08-07T14:27:18;20.10;52.80
43995;DHT22;51687;52.160;5.298;2023-08-07T14:29:45;20.10;52.60
43995;DHT22;51687;52.160;5.298;2023-08-07T14:32:12;20.10;53.10
43995;DHT22;51687;52.160;5.298;2023-08-07T14:34:38;20.20;53.40
43995;DHT22;51687;52.160;5.298;2023-08-07T14:37:05;20.20;53.00
43995;DHT22;51687;52.160;5.298;2023-08-07T14:39:32;20.20;51.90
43995;DHT22;51687;52.160;5.298;2023-08-07T14:41:59;20.20;52.30
43995;DHT22;51687;52.160;5.298;2023-08-07T14:44:26;20.20;52.80
43995;DHT22;51687;52.160;5.298;2023-08-07T14:46:53;20.20;52.60
43995;DHT22;51687;52.160;5.298;2023-08-07T14:49:19;20.20;52.10
43995;DHT22;51687;52.160;5.298;2023-08-07T14:51:46;20.30;53.80
43995;DHT22;51687;52.160;5.298;2023-08-07T14:54:13;20.30;52.00
43995;DHT22;51687;52.160;5.298;2023-08-07T14:56:39;20.30;51.10
43995;DHT22;51687;52.160;5.298;2023-08-07T14:59:07;20.30;51.20
43995;DHT22;51687;52.160;5.298;2023-08-07T15:01:34;20.30;52.30
43995;DHT22;51687;52.160;5.298;2023-08-07T15:04:00;20.30;51.40
43995;DHT22;51687;52.160;5.298;2023-08-07T15:06:28;20.30;51.90
43995;DHT22;51687;52.160;5.298;2023-08-07T15:08:59;20.30;52.50
43995;DHT22;51687;52.160;5.298;2023-08-07T15:11:26;20.40;52.90
43995;DHT22;51687;52.160;5.298;2023-08-07T15:13:52;20.30;54.20
43995;DHT22;51687;52.160;5.298;2023-08-07T15:16:19;20.40;54.70
43995;DHT22;51687;52.160;5.298;2023-08-07T15:18:46;20.40;54.40
43995;DHT22;51687;52.160;5.298;2023-08-07T15:21:13;20.40;55.20
43995;DHT22;51687;52.160;5.298;2023-08-07T15:23:39;20.40;55.50
43995;DHT22;51687;52.160;5.298;2023-08-07T15:26:06;20.40;53.50
43995;DHT22;51687;52.160;5.298;2023-08-07T15:28:33;20.40;54.90
43995;DHT22;51687;52.160;5.298;2023-08-07T15:31:00;20.40;54.30
43995;DHT22;51687;52.160;5.298;2023-08-07T15:33:26;20.40;54.50
43995;DHT22;51687;52.160;5.298;2023-08-07T15:35:54;20.40;54.60
43995;DHT22;51687;52.160;5.298;2023-08-07T15:38:21;20.40;55.50
43995;DHT22;51687;52.160;5.298;2023-08-07T15:40:48;20.40;55.10
43995;DHT22;51687;52.160;5.298;2023-08-07T15:43:15;20.40;53.80
43995;DHT22;51687;52.160;5.298;2023-08-07T15:45:44;20.40;53.40
43995;DHT22;51687;52.160;5.298;2023-08-07T15:48:11;20.40;53.40
43995;DHT22;51687;52.160;5.298;2023-08-07T15:50:38;20.40;53.70
43995;DHT22;51687;52.160;5.298;2023-08-07T15:53:06;20.40;54.60
43995;DHT22;51687;52.160;5.298;2023-08-07T15:55:32;20.40;53.30
43995;DHT22;51687;52.160;5.298;2023-08-07T15:58:05;20.40;53.50
43995;DHT22;51687;52.160;5.298;2023-08-07T16:00:34;20.40;53.70
43995;DHT22;51687;52.160;5.298;2023-08-07T16:03:02;20.40;53.20
43995;DHT22;51687;52.160;5.298;2023-08-07T16:05:32;20.40;53.60
43995;DHT22;51687;52.160;5.298;2023-08-07T16:07:59;20.40;53.40
43995;DHT22;51687;52.160;5.298;2023-08-07T16:10:26;20.40;54.10
43995;DHT22;51687;52.160;5.298;2023-08-07T16:12:54;20.40;52.90
43995;DHT22;51687;52.160;5.298;2023-08-07T16:15:22;20.40;53.30
43995;DHT22;51687;52.160;5.298;2023-08-07T16:17:49;20.40;53.70
43995;DHT22;51687;52.160;5.298;2023-08-07T16:20:16;20.40;53.80
43995;DHT22;51687;52.160;5.298;2023-08-07T16:22:43;20.40;54.40
43995;DHT22;51687;52.160;5.298;2023-08-07T16:25:10;20.40;55.10
43995;DHT22;51687;52.160;5.298;2023-08-07T16:27:38;20.40;54.30
43995;DHT22;51687;52.160;5.298;2023-08-07T16:30:05;20.40;53.80
43995;DHT22;51687;52.160;5.298;2023-08-07T16:32:37;20.30;54.60
43995;DHT22;51687;52.160;5.298;2023-08-07T16:35:05;20.30;55.10
43995;DHT22;51687;52.160;5.298;2023-08-07T16:37:32;20.30;55.40
43995;DHT22;51687;52.160;5.298;2023-08-07T16:39:59;20.30;55.40
43995;DHT22;51687;52.160;5.298;2023-08-07T16:42:26;20.40;56.50
43995;DHT22;51687;52.160;5.298;2023-08-07T16:44:53;20.40;57.20
43995;DHT22;51687;52.160;5.298;2023-08-07T16:47:20;20.40;57.90
43995;DHT22;51687;52.160;5.298;2023-08-07T16:49:47;20.40;58.00
43995;DHT22;51687;52.160;5.298;2023-08-07T16:52:14;20.40;58.70
43995;DHT22;51687;52.160;5.298;2023-08-07T16:54:41;20.40;57.90
43995;DHT22;51687;52.160;5.298;2023-08-07T16:57:08;20.40;58.20
43995;DHT22;51687;52.160;5.298;2023-08-07T16:59:35;20.40;57.80
43995;DHT22;51687;52.160;5.298;2023-08-07T17:02:01;20.40;58.40
43995;DHT22;51687;52.160;5.298;2023-08-07T17:04:28;20.40;58.10
43995;DHT22;51687;52.160;5.298;2023-08-07T17:06:58;20.50;58.10
43995;DHT22;51687;52.160;5.298;2023-08-07T17:09:26;20.50;58.70
43995;DHT22;51687;52.160;5.298;2023-08-07T17:11:53;20.50;58.60
43995;DHT22;51687;52.160;5.298;2023-08-07T17:14:20;20.50;59.60
43995;DHT22;51687;52.160;5.298;2023-08-07T17:16:47;20.50;59.50
43995;DHT22;51687;52.160;5.298;2023-08-07T17:19:14;20.50;58.60
43995;DHT22;51687;52.160;5.298;2023-08-07T17:21:41;20.50;58.80
43995;DHT22;51687;52.160;5.298;2023-08-07T17:24:07;20.50;59.40
43995;DHT22;51687;52.160;5.298;2023-08-07T17:26:34;20.50;59.20
43995;DHT22;51687;52.160;5.298;2023-08-07T17:29:02;20.50;59.40
43995;DHT22;51687;52.160;5.298;2023-08-07T17:31:29;20.50;59.10
43995;DHT22;51687;52.160;5.298;2023-08-07T17:33:56;20.40;59.30
43995;DHT22;51687;52.160;5.298;2023-08-07T17:36:23;20.50;59.70
43995;DHT22;51687;52.160;5.298;2023-08-07T17:38:50;20.50;60.00
43995;DHT22;51687;52.160;5.298;2023-08-07T17:41:17;20.50;60.30
43995;DHT22;51687;52.160;5.298;2023-08-07T17:43:47;20.50;59.90
43995;DHT22;51687;52.160;5.298;2023-08-07T17:46:14;20.50;58.90
43995;DHT22;51687;52.160;5.298;2023-08-07T17:48:40;20.50;59.30
43995;DHT22;51687;52.160;5.298;2023-08-07T17:51:12;20.50;59.20
43995;DHT22;51687;52.160;5.298;2023-08-07T17:53:39;20.50;58.60
43995;DHT22;51687;52.160;5.298;2023-08-07T17:56:06;20.40;58.70
43995;DHT22;51687;52.160;5.298;2023-08-07T17:58:33;20.40;58.70
43995;DHT22;51687;52.160;5.298;2023-08-07T18:01:00;20.40;58.60
43995;DHT22;51687;52.160;5.298;2023-08-07T18:03:27;20.40;58.40
43995;DHT22;51687;52.160;5.298;2023-08-07T18:05:53;20.40;58.80
43995;DHT22;51687;52.160;5.298;2023-08-07T18:08:20;20.40;59.10
43995;DHT22;51687;52.160;5.298;2023-08-07T18:10:47;20.40;59.00
43995;DHT22;51687;52.160;5.298;2023-08-07T18:13:14;20.40;59.10
43995;DHT22;51687;52.160;5.298;2023-08-07T18:15:41;20.40;59.20
43995;DHT22;51687;52.160;5.298;2023-08-07T18:18:08;20.40;58.80
43995;DHT22;51687;52.160;5.298;2023-08-07T18:20:34;20.30;59.10
43995;DHT22;51687;52.160;5.298;2023-08-07T18:23:01;20.30;58.70
43995;DHT22;51687;52.160;5.298;2023-08-07T18:25:28;20.30;58.40
43995;DHT22;51687;52.160;5.298;2023-08-07T18:27:55;20.40;58.40
43995;DHT22;51687;52.160;5.298;2023-08-07T18:30:22;20.30;58.50
43995;DHT22;51687;52.160;5.298;2023-08-07T18:32:48;20.30;58.60
43995;DHT22;51687;52.160;5.298;2023-08-07T18:35:17;20.40;59.40
43995;DHT22;51687;52.160;5.298;2023-08-07T18:37:44;20.30;59.20
43995;DHT22;51687;52.160;5.298;2023-08-07T18:40:11;20.30;58.60
43995;DHT22;51687;52.160;5.298;2023-08-07T18:42:38;20.30;58.40
43995;DHT22;51687;52.160;5.298;2023-08-07T18:45:05;20.30;58.40
43995;DHT22;51687;52.160;5.298;2023-08-07T18:47:32;20.30;58.40
43995;DHT22;51687;52.160;5.298;2023-08-07T18:49:59;20.30;58.30
43995;DHT22;51687;52.160;5.298;2023-08-07T18:52:25;20.30;59.00
43995;DHT22;51687;52.160;5.298;2023-08-07T18:54:52;20.30;59.10
43995;DHT22;51687;52.160;5.298;2023-08-07T18:57:19;20.20;58.30
43995;DHT22;51687;52.160;5.298;2023-08-07T18:59:46;20.20;58.50
43995;DHT22;51687;52.160;5.298;2023-08-07T19:02:13;20.20;58.60
43995;DHT22;51687;52.160;5.298;2023-08-07T19:04:40;20.20;58.50
43995;DHT22;51687;52.160;5.298;2023-08-07T19:07:09;20.20;58.90